Un Akdeniz — TCTD2 — position and weather

sailwx.info

Track history (hours):
 
Tides and Currents Weather Stations Pressure Air Temp Water Temp Dewpoint Dewpoint Depression Visibility Wind Speed Wind Dir Waves Ship Positions

Un Akdeniz

Last reported at 2015-Mar-27 04:06 UTC. Time now 2015-Mar-27 05:21 UTC.
Position N 42°50' E 009°52'.

Length 192 m; draft 6.8 m.

Type: Ship (hazmat cat A). MMSI: 271002572.

Date/timePositionNaut miles runAvg speedWind from/ knotsBaromVisibWave heightAir tempDewpointWater temp
2015-Mar-27 04:06N 42°50' E 009°52'1418.2
2015-Mar-27 03:21N 42°60' E 009°39'1417.5
2015-Mar-27 02:33N 43°09' E 009°25'1919.5
2015-Mar-27 01:34N 43°07' E 008°58'2119.2
2015-Mar-27 00:27N 43°05' E 008°29'1719.0
2015-Mar-26 23:34N 43°04' E 008°06'1918.8
2015-Mar-26 22:34N 43°03' E 007°40'1918.8
2015-Mar-26 21:34N 43°01' E 007°15'1918.5
2015-Mar-26 20:34N 42°59' E 006°49'1918.6
2015-Mar-26 19:33N 42°57' E 006°24'1818.2
2015-Mar-26 18:33N 43°03' E 006°00'6 5.9
2015-Mar-26 17:34N 43°06' E 005°54'0 0.0
2015-Mar-26 16:33N 43°06' E 005°54'0 0.0
2015-Mar-26 15:33N 43°06' E 005°54'0 0.0
2015-Mar-26 14:33N 43°06' E 005°54'0 0.0
2015-Mar-26 13:34N 43°06' E 005°54'0 0.0
2015-Mar-26 12:33N 43°06' E 005°54'0 0.0
2015-Mar-26 11:33N 43°06' E 005°54'0 0.0
2015-Mar-26 10:33N 43°06' E 005°54'0 0.0
2015-Mar-26 09:34N 43°06' E 005°54'0 0.0
2015-Mar-26 08:33N 43°06' E 005°54'0 0.3
2015-Mar-26 07:33N 43°06' E 005°54'7 7.3
2015-Mar-26 06:33N 43°02' E 006°02'1712.1
2015-Mar-26 05:09N 42°57' E 006°24'814.0
2015-Mar-26 04:33N 42°59' E 006°35'1514.9
2015-Mar-26 03:34N 43°06' E 006°53'1515.0
2015-Mar-26 02:33N 43°13' E 007°11'1515.2
2015-Mar-26 01:34N 43°20' E 007°30'4113.7
2015-Mar-25 22:33N 43°24' E 008°26'1514.8
2015-Mar-25 21:33N 43°17' E 008°44'1815.0
2015-Mar-25 20:20N 43°10' E 009°08'1317.0
2015-Mar-25 19:34N 43°11' E 009°26'3617.4
2015-Mar-25 17:28N 42°38' E 009°48'20118.2
2015-Mar-25 06:23N 40°20' E 013°04'69613.4
2015-Mar-23 02:25N 40°51' E 028°20'1618.1
2015-Mar-23 01:33N 40°52' E 028°41'1918.3
2015-Mar-23 00:32N 40°49' E 029°05'9 7.1
2015-Mar-22 23:17N 40°51' E 029°16'0 0.0
2015-Mar-22 21:26N 40°51' E 029°16'0 0.0
2015-Mar-22 17:24N 40°51' E 029°16'0 0.0
2015-Mar-22 16:27N 40°51' E 029°16'0 0.0
2015-Mar-22 14:23N 40°51' E 029°16'0 0.0
2015-Mar-22 13:22N 40°51' E 029°16'0 0.0
2015-Mar-22 12:31N 40°51' E 029°16'0 0.0
2015-Mar-22 11:18N 40°51' E 029°16'0 0.0
2015-Mar-22 10:33N 40°51' E 029°16'8 8.5
2015-Mar-22 09:34N 40°49' E 029°06'1919.1
2015-Mar-22 08:34N 40°49' E 028°40'  
Track history (hours):
 
Tides and Currents Weather Stations Pressure Air Temp Water Temp Dewpoint Dewpoint Depression Visibility Wind Speed Wind Dir Waves Ship Positions

Un Akdeniz

Last reported at 2015-Mar-27 04:06 UTC. Time now 2015-Mar-27 05:21 UTC.
Position N 42°50' E 009°52'.

Length 192 m; draft 6.8 m.

Type: Ship (hazmat cat A). MMSI: 271002572.

Date/timePositionNaut miles runAvg speedWind from/ knotsBaromVisibWave heightAir tempDewpointWater temp
2015-Mar-27 04:06N 42°50' E 009°52'1418.2
2015-Mar-27 03:21N 42°60' E 009°39'1417.5
2015-Mar-27 02:33N 43°09' E 009°25'1919.5
2015-Mar-27 01:34N 43°07' E 008°58'2119.2
2015-Mar-27 00:27N 43°05' E 008°29'1719.0
2015-Mar-26 23:34N 43°04' E 008°06'1918.8
2015-Mar-26 22:34N 43°03' E 007°40'1918.8
2015-Mar-26 21:34N 43°01' E 007°15'1918.5
2015-Mar-26 20:34N 42°59' E 006°49'1918.6
2015-Mar-26 19:33N 42°57' E 006°24'1818.2
2015-Mar-26 18:33N 43°03' E 006°00'6 5.9
2015-Mar-26 17:34N 43°06' E 005°54'0 0.0
2015-Mar-26 16:33N 43°06' E 005°54'0 0.0
2015-Mar-26 15:33N 43°06' E 005°54'0 0.0
2015-Mar-26 14:33N 43°06' E 005°54'0 0.0
2015-Mar-26 13:34N 43°06' E 005°54'0 0.0
2015-Mar-26 12:33N 43°06' E 005°54'0 0.0
2015-Mar-26 11:33N 43°06' E 005°54'0 0.0
2015-Mar-26 10:33N 43°06' E 005°54'0 0.0
2015-Mar-26 09:34N 43°06' E 005°54'0 0.0
2015-Mar-26 08:33N 43°06' E 005°54'0 0.3
2015-Mar-26 07:33N 43°06' E 005°54'7 7.3
2015-Mar-26 06:33N 43°02' E 006°02'1712.1
2015-Mar-26 05:09N 42°57' E 006°24'814.0
2015-Mar-26 04:33N 42°59' E 006°35'1514.9
2015-Mar-26 03:34N 43°06' E 006°53'1515.0
2015-Mar-26 02:33N 43°13' E 007°11'1515.2
2015-Mar-26 01:34N 43°20' E 007°30'4113.7
2015-Mar-25 22:33N 43°24' E 008°26'1514.8
2015-Mar-25 21:33N 43°17' E 008°44'1815.0
2015-Mar-25 20:20N 43°10' E 009°08'1317.0
2015-Mar-25 19:34N 43°11' E 009°26'3617.4
2015-Mar-25 17:28N 42°38' E 009°48'20118.2
2015-Mar-25 06:23N 40°20' E 013°04'69613.4
2015-Mar-23 02:25N 40°51' E 028°20'1618.1
2015-Mar-23 01:33N 40°52' E 028°41'1918.3
2015-Mar-23 00:32N 40°49' E 029°05'9 7.1
2015-Mar-22 23:17N 40°51' E 029°16'0 0.0
2015-Mar-22 21:26N 40°51' E 029°16'0 0.0
2015-Mar-22 17:24N 40°51' E 029°16'0 0.0
2015-Mar-22 16:27N 40°51' E 029°16'0 0.0
2015-Mar-22 14:23N 40°51' E 029°16'0 0.0
2015-Mar-22 13:22N 40°51' E 029°16'0 0.0
2015-Mar-22 12:31N 40°51' E 029°16'0 0.0
2015-Mar-22 11:18N 40°51' E 029°16'0 0.0
2015-Mar-22 10:33N 40°51' E 029°16'8 8.5
2015-Mar-22 09:34N 40°49' E 029°06'1919.1
2015-Mar-22 08:34N 40°49' E 028°40'  

Dump ship's entire track history